Southboro, Massachusetts
Current Conditions -  °F | °C
As of 11:56 AM on Thursday 23 Oct 2014 (Local Time) from KBED Reporting Station
Haze Haze  
Wind Chill: 52°   Ceiling: 900
Heat Index: 52°   Visibility: 5mi
Dew Point: 50°   Wind: 14mph
Humidity: 93%   Direction: 20°NNE
Pressure: 29.64"   Gusts: 28mph
Location:  42.3002°N, 71.5323°W
Report Text: KBED 231556Z 02012G24KT 5SM BR OVC009 11/10 A2964 RMK AO2 PK WND 01027/1518 RAE05 SLP049 P0000 T01110100
Loading
Personal Weather Stations






























Interactive Weather Map
Tropical Storm Tracking
New forecast layout! Learn more

10-Day Weather Forecast

Advertisements
Track Severe Weather on mobile